createdAt,value
2019-02-15T00:02:20.877Z,5.77
2019-02-15T00:04:49.196Z,5.76
2019-02-15T00:07:17.554Z,5.75
2019-02-15T00:09:46.273Z,5.74
2019-02-15T00:12:14.656Z,5.74
2019-02-15T00:14:49.238Z,5.69
2019-02-15T00:17:18.601Z,5.71
2019-02-15T00:19:48.568Z,5.66
2019-02-15T00:22:16.939Z,5.66
2019-02-15T00:24:45.281Z,5.64
2019-02-15T00:27:13.676Z,5.62
2019-02-15T00:29:42.098Z,5.61
2019-02-15T00:32:10.400Z,5.59
2019-02-15T00:34:38.778Z,5.58
2019-02-15T00:37:07.143Z,5.59
2019-02-15T00:39:44.928Z,5.57
2019-02-15T00:42:13.351Z,5.56
2019-02-15T00:44:41.749Z,5.53
2019-02-15T00:47:20.750Z,5.52
2019-02-15T00:49:50.740Z,5.51
2019-02-15T00:52:20.752Z,5.50
2019-02-15T00:54:56.646Z,5.47
2019-02-15T00:57:26.632Z,5.46
2019-02-15T00:59:56.667Z,5.46
2019-02-15T01:02:26.683Z,5.46
2019-02-15T01:04:59.467Z,5.43
2019-02-15T01:07:38.381Z,5.45
2019-02-15T01:10:11.240Z,5.43
2019-02-15T01:12:41.264Z,5.41
2019-02-15T01:15:09.645Z,5.41
2019-02-15T01:17:38.017Z,5.42
2019-02-15T01:20:06.402Z,5.40
2019-02-15T01:22:34.785Z,5.41
2019-02-15T01:25:03.311Z,5.40
2019-02-15T01:27:45.590Z,5.40
2019-02-15T01:30:18.460Z,5.39
2019-02-15T01:33:05.060Z,5.34
2019-02-15T01:35:35.087Z,5.34
2019-02-15T01:38:07.900Z,5.35
2019-02-15T01:40:37.992Z,5.33
2019-02-15T01:43:10.530Z,5.28
2019-02-15T01:45:40.514Z,5.22
2019-02-15T01:48:08.871Z,5.22
2019-02-15T01:50:37.243Z,5.21
2019-02-15T01:53:05.671Z,5.21
2019-02-15T01:55:34.185Z,5.21
2019-02-15T01:58:02.536Z,5.20
2019-02-15T02:00:31.882Z,5.18
2019-02-15T02:03:00.290Z,5.18
2019-02-15T02:05:28.672Z,5.18
2019-02-15T02:07:57.109Z,5.18
2019-02-15T02:10:25.501Z,5.18
2019-02-15T02:12:53.875Z,5.20
2019-02-15T02:15:22.219Z,5.22
2019-02-15T02:17:50.630Z,5.21
2019-02-15T02:20:19.123Z,5.18
2019-02-15T02:22:47.434Z,5.19
2019-02-15T02:25:16.154Z,5.20
2019-02-15T02:27:44.627Z,5.16
2019-02-15T02:30:13.018Z,5.13
2019-02-15T02:32:41.387Z,5.13
2019-02-15T02:35:09.754Z,5.14
2019-02-15T02:37:38.133Z,5.13
2019-02-15T02:40:08.347Z,5.09
2019-02-15T02:42:36.717Z,5.11
2019-02-15T02:45:06.840Z,5.07
2019-02-15T02:47:35.602Z,5.04
2019-02-15T02:50:05.280Z,5.04
2019-02-15T02:52:33.746Z,4.92
2019-02-15T02:55:02.091Z,4.96
2019-02-15T02:57:30.471Z,4.97
2019-02-15T02:59:58.846Z,4.95
2019-02-15T03:02:27.195Z,4.96
2019-02-15T03:04:55.864Z,4.93
2019-02-15T03:07:24.237Z,4.93
2019-02-15T03:09:52.620Z,4.91
2019-02-15T03:12:20.997Z,4.93
2019-02-15T03:14:49.338Z,4.92
2019-02-15T03:17:17.832Z,4.92
2019-02-15T03:19:46.293Z,4.90
2019-02-15T03:22:14.646Z,4.85
2019-02-15T03:24:43.242Z,4.79
2019-02-15T03:27:11.721Z,4.79
2019-02-15T03:29:40.032Z,4.82
2019-02-15T03:32:08.396Z,4.81
2019-02-15T03:34:36.764Z,4.79
2019-02-15T03:37:09.764Z,4.78
2019-02-15T03:39:39.738Z,4.79
2019-02-15T03:42:09.394Z,4.77
2019-02-15T03:44:37.866Z,4.78
2019-02-15T03:47:06.213Z,4.79
2019-02-15T03:49:34.564Z,4.79
2019-02-15T03:52:02.969Z,4.78
2019-02-15T03:54:31.403Z,4.75
2019-02-15T03:56:59.746Z,4.73
2019-02-15T03:59:28.115Z,4.73
2019-02-15T04:01:56.710Z,4.69
2019-02-15T04:04:25.102Z,4.67
2019-02-15T04:06:53.468Z,4.63
2019-02-15T04:09:21.847Z,4.63
2019-02-15T04:11:50.212Z,4.65
2019-02-15T04:14:18.920Z,4.58
2019-02-15T04:16:47.274Z,4.57
2019-02-15T04:19:15.692Z,4.59
2019-02-15T04:21:44.008Z,4.67
2019-02-15T04:24:13.591Z,4.67
2019-02-15T04:26:42.083Z,4.67
2019-02-15T04:29:10.438Z,4.62
2019-02-15T04:31:38.799Z,4.61
2019-02-15T04:34:07.164Z,4.64
2019-02-15T04:36:35.699Z,4.63
2019-02-15T04:39:04.855Z,4.61
2019-02-15T04:41:33.441Z,4.58
2019-02-15T04:44:03.120Z,4.52
2019-02-15T04:46:31.558Z,4.52
2019-02-15T04:48:59.929Z,4.51
2019-02-15T04:51:28.287Z,4.49
2019-02-15T04:53:56.664Z,4.49
2019-02-15T04:56:25.019Z,4.51
2019-02-15T04:58:53.371Z,4.51
2019-02-15T05:01:21.891Z,4.51
2019-02-15T05:03:50.285Z,4.48
2019-02-15T05:06:18.704Z,4.46
2019-02-15T05:08:47.102Z,4.45
2019-02-15T05:11:15.429Z,4.41
2019-02-15T05:13:43.787Z,4.43
2019-02-15T05:16:12.427Z,4.38
2019-02-15T05:18:40.802Z,4.44
2019-02-15T05:21:09.202Z,4.43
2019-02-15T05:23:37.672Z,4.43
2019-02-15T05:26:05.986Z,4.41
2019-02-15T05:28:34.361Z,4.40
2019-02-15T05:31:02.715Z,4.40
2019-02-15T05:33:31.064Z,4.37
2019-02-15T05:35:59.775Z,4.33
2019-02-15T05:38:28.210Z,4.33
2019-02-15T05:40:56.580Z,4.33
2019-02-15T05:43:25.072Z,4.32
2019-02-15T05:45:53.460Z,4.31
2019-02-15T05:48:21.792Z,4.30
2019-02-15T05:50:50.144Z,4.29
2019-02-15T05:53:18.506Z,4.29
2019-02-15T05:55:46.878Z,4.29
2019-02-15T05:58:15.214Z,4.31
2019-02-15T06:00:43.648Z,4.31
2019-02-15T06:03:13.682Z,4.28
2019-02-15T06:05:42.274Z,4.26
2019-02-15T06:08:10.682Z,4.25
2019-02-15T06:10:39.501Z,4.25
2019-02-15T06:13:07.854Z,4.28
2019-02-15T06:15:36.231Z,4.29
2019-02-15T06:18:04.589Z,4.25
2019-02-15T06:20:32.963Z,4.23
2019-02-15T06:23:01.312Z,4.23
2019-02-15T06:25:29.732Z,4.24
2019-02-15T06:27:58.123Z,4.26
2019-02-15T06:30:26.484Z,4.26
2019-02-15T06:32:55.125Z,4.23
2019-02-15T06:35:23.480Z,4.20
2019-02-15T06:37:51.940Z,4.20
2019-02-15T06:40:20.382Z,4.20
2019-02-15T06:42:48.738Z,4.17
2019-02-15T06:45:24.228Z,4.17
2019-02-15T06:47:48.026Z,4.18
2019-02-15T06:50:16.369Z,4.16
2019-02-15T06:52:44.757Z,4.18
2019-02-15T06:55:13.117Z,4.19
2019-02-15T06:57:41.501Z,4.20
2019-02-15T07:00:18.853Z,4.20
2019-02-15T07:02:54.402Z,4.22
2019-02-15T07:05:28.381Z,4.23
2019-02-15T07:07:57.014Z,4.25
2019-02-15T07:10:25.391Z,4.34
2019-02-15T07:12:53.749Z,4.34
2019-02-15T07:15:22.129Z,4.37
2019-02-15T07:17:50.505Z,4.39
2019-02-15T07:20:19.036Z,4.41
2019-02-15T07:22:47.418Z,4.42
2019-02-15T07:25:15.778Z,4.46
2019-02-15T07:27:44.125Z,4.51
2019-02-15T07:30:15.546Z,4.61
2019-02-15T07:32:44.068Z,4.61
2019-02-15T07:35:12.589Z,4.68
2019-02-15T07:37:40.903Z,4.78
2019-02-15T07:40:10.409Z,4.89
2019-02-15T07:42:38.828Z,4.96
2019-02-15T07:45:09.742Z,5.02
2019-02-15T07:47:38.093Z,5.13
2019-02-15T07:50:11.833Z,5.13
2019-02-15T07:52:40.213Z,5.20
2019-02-15T07:55:09.071Z,5.34
2019-02-15T07:57:37.453Z,5.34
2019-02-15T08:00:14.141Z,5.45
2019-02-15T08:02:42.492Z,5.45
2019-02-15T08:05:11.103Z,5.52
2019-02-15T08:07:39.532Z,5.58
2019-02-15T08:10:10.228Z,5.65
2019-02-15T08:12:38.669Z,5.74
2019-02-15T08:15:09.304Z,5.82
2019-02-15T08:17:37.661Z,5.89
2019-02-15T08:20:11.095Z,5.95
2019-02-15T08:22:39.592Z,6.02
2019-02-15T08:25:08.816Z,6.10
2019-02-15T08:27:37.225Z,6.15
2019-02-15T08:30:08.465Z,6.23
2019-02-15T08:32:36.862Z,6.33
2019-02-15T08:35:07.386Z,6.42
2019-02-15T08:37:35.764Z,6.36
2019-02-15T08:40:05.985Z,6.60
2019-02-15T08:42:34.381Z,6.68
2019-02-15T08:45:03.296Z,6.75
2019-02-15T08:47:31.643Z,6.82
2019-02-15T08:49:59.994Z,6.89
2019-02-15T08:52:28.542Z,6.97
2019-02-15T08:54:56.892Z,7.04
2019-02-15T08:57:25.369Z,7.10
2019-02-15T08:59:53.759Z,7.15
2019-02-15T09:02:22.984Z,7.19
2019-02-15T09:04:51.432Z,7.26
2019-02-15T09:07:19.836Z,7.31
2019-02-15T09:09:48.205Z,7.38
2019-02-15T09:12:16.946Z,7.46
2019-02-15T09:14:45.321Z,7.53
2019-02-15T09:17:13.763Z,7.64
2019-02-15T09:19:42.113Z,7.74
2019-02-15T09:22:10.462Z,7.83
2019-02-15T09:24:38.808Z,7.91
2019-02-15T09:27:08.872Z,8.00
2019-02-15T09:29:37.204Z,8.11
2019-02-15T09:32:05.629Z,8.23
2019-02-15T09:34:34.314Z,8.34
2019-02-15T09:37:03.007Z,8.39
2019-02-15T09:39:31.382Z,8.51
2019-02-15T09:41:59.956Z,8.63
2019-02-15T09:44:28.302Z,8.70
2019-02-15T09:46:56.665Z,8.76
2019-02-15T09:49:25.194Z,8.85
2019-02-15T09:51:55.512Z,8.92
2019-02-15T09:54:23.650Z,8.97
2019-02-15T09:56:52.040Z,9.02
2019-02-15T09:59:20.778Z,9.08
2019-02-15T10:01:49.133Z,9.15
2019-02-15T10:04:17.567Z,9.22
2019-02-15T10:06:46.483Z,9.30
2019-02-15T10:09:14.841Z,9.39
2019-02-15T10:11:43.862Z,9.50
2019-02-15T10:14:12.283Z,9.59
2019-02-15T10:16:40.646Z,9.66
2019-02-15T10:19:09.047Z,9.73
2019-02-15T10:21:38.006Z,9.77
2019-02-15T10:24:06.349Z,9.87
2019-02-15T10:26:35.277Z,9.96
2019-02-15T10:29:04.200Z,10.06
2019-02-15T10:31:33.138Z,10.15
2019-02-15T10:34:03.784Z,10.20
2019-02-15T10:36:32.757Z,10.24
2019-02-15T10:39:01.684Z,10.30
2019-02-15T10:41:30.675Z,10.39
2019-02-15T10:43:59.630Z,10.52
2019-02-15T10:46:37.482Z,10.62
2019-02-15T10:48:59.202Z,10.69
2019-02-15T10:51:28.135Z,10.78
2019-02-15T10:53:57.087Z,10.84
2019-02-15T10:56:26.113Z,10.88
2019-02-15T10:58:55.425Z,10.92
2019-02-15T11:01:24.356Z,10.93
2019-02-15T11:03:53.372Z,10.95
2019-02-15T11:06:22.362Z,10.98
2019-02-15T11:08:51.339Z,10.98
2019-02-15T11:11:20.275Z,11.02
2019-02-15T11:13:49.198Z,11.07
2019-02-15T11:16:18.164Z,11.11
2019-02-15T11:18:47.093Z,11.12
2019-02-15T11:21:16.039Z,11.13
2019-02-15T11:23:44.996Z,11.17
2019-02-15T11:26:13.921Z,11.22
2019-02-15T11:28:42.870Z,11.25
2019-02-15T11:31:11.807Z,11.32
2019-02-15T11:33:40.721Z,11.35
2019-02-15T11:36:09.638Z,11.41
2019-02-15T11:38:38.585Z,11.48
2019-02-15T11:41:11.280Z,11.51
2019-02-15T11:43:38.262Z,11.54
2019-02-15T11:46:07.153Z,11.56
2019-02-15T11:48:36.086Z,11.56
2019-02-15T11:51:05.020Z,11.60
2019-02-15T11:53:34.028Z,11.66
2019-02-15T11:56:02.985Z,11.68
2019-02-15T11:58:31.902Z,11.72
2019-02-15T12:01:00.845Z,11.77
2019-02-15T12:03:29.778Z,11.79
2019-02-15T12:05:58.730Z,11.79
2019-02-15T12:08:27.663Z,11.85
2019-02-15T12:10:56.580Z,11.92
2019-02-15T12:13:25.540Z,11.97
2019-02-15T12:15:54.483Z,12.02
2019-02-15T12:18:23.458Z,12.05
2019-02-15T12:20:52.393Z,12.07
2019-02-15T12:23:21.320Z,12.14
2019-02-15T12:25:50.352Z,12.19
2019-02-15T12:28:19.407Z,12.23
2019-02-15T12:30:48.354Z,12.28
2019-02-15T12:33:17.323Z,12.35
2019-02-15T12:35:46.327Z,12.37
2019-02-15T12:38:15.236Z,12.43
2019-02-15T12:40:44.153Z,12.48
2019-02-15T12:43:13.077Z,12.50
2019-02-15T12:45:41.996Z,12.49
2019-02-15T12:48:10.955Z,12.46
2019-02-15T12:50:39.875Z,12.50
2019-02-15T12:53:08.821Z,12.51
2019-02-15T12:55:38.020Z,12.54
2019-02-15T12:58:06.941Z,12.52
2019-02-15T13:00:35.920Z,12.48
2019-02-15T13:03:05.357Z,12.50
2019-02-15T13:05:34.332Z,12.52
2019-02-15T13:08:03.259Z,12.52
2019-02-15T13:10:33.844Z,12.56
2019-02-15T13:13:02.788Z,12.59
2019-02-15T13:15:31.731Z,12.60
2019-02-15T13:18:00.668Z,12.63
2019-02-15T13:20:29.704Z,12.65
2019-02-15T13:22:58.642Z,12.70
2019-02-15T13:25:36.315Z,12.74
2019-02-15T13:27:58.539Z,12.74
2019-02-15T13:30:27.726Z,12.71
2019-02-15T13:32:56.681Z,12.73
2019-02-15T13:35:25.603Z,12.75
2019-02-15T13:37:54.535Z,12.77
2019-02-15T13:40:23.487Z,12.83
2019-02-15T13:42:52.452Z,12.87
2019-02-15T13:45:21.740Z,12.87
2019-02-15T13:47:50.666Z,12.85
2019-02-15T13:50:19.619Z,12.84
2019-02-15T13:52:48.587Z,12.90
2019-02-15T13:55:17.604Z,12.98
2019-02-15T13:57:46.552Z,12.99
2019-02-15T14:00:15.491Z,12.99
2019-02-15T14:02:44.481Z,13.00
2019-02-15T14:05:13.782Z,13.08
2019-02-15T14:07:42.682Z,13.10
2019-02-15T14:10:12.909Z,13.06
2019-02-15T14:12:41.846Z,13.09
2019-02-15T14:15:11.536Z,13.17
2019-02-15T14:17:44.913Z,13.23
2019-02-15T14:20:12.354Z,13.24
2019-02-15T14:22:41.285Z,13.25
2019-02-15T14:25:13.801Z,13.24
2019-02-15T14:27:42.746Z,13.25
2019-02-15T14:30:12.852Z,13.29
2019-02-15T14:32:41.820Z,13.39
2019-02-15T14:35:13.335Z,14.11
2019-02-15T14:37:42.283Z,15.14
2019-02-15T14:40:12.123Z,15.92
2019-02-15T14:42:41.039Z,16.09
2019-02-15T14:45:13.873Z,16.00
2019-02-15T14:47:42.783Z,16.29
2019-02-15T14:50:11.780Z,16.56
2019-02-15T14:52:41.122Z,16.37
2019-02-15T14:55:10.910Z,15.82
2019-02-15T14:57:39.868Z,15.28
2019-02-15T15:00:13.872Z,14.76
2019-02-15T15:02:42.292Z,14.38
2019-02-15T15:05:13.744Z,14.11
2019-02-15T15:07:42.873Z,13.92
2019-02-15T15:10:12.042Z,13.76
2019-02-15T15:12:41.004Z,13.65
2019-02-15T15:15:13.057Z,13.56
2019-02-15T15:17:41.978Z,13.49
2019-02-15T15:20:12.179Z,13.48
2019-02-15T15:22:41.151Z,13.47
2019-02-15T15:25:16.108Z,13.45
2019-02-15T15:27:43.801Z,13.47
2019-02-15T15:30:16.049Z,13.40
2019-02-15T15:32:44.993Z,13.37
2019-02-15T15:35:13.958Z,13.31
2019-02-15T15:37:44.070Z,13.23
2019-02-15T15:40:15.344Z,13.21
2019-02-15T15:42:44.262Z,13.19
2019-02-15T15:45:13.275Z,13.14
2019-02-15T15:47:42.202Z,13.08
2019-02-15T15:50:11.867Z,13.01
2019-02-15T15:52:40.803Z,12.90
2019-02-15T15:55:11.365Z,12.79
2019-02-15T15:57:40.315Z,12.67
2019-02-15T16:00:14.053Z,12.62
2019-02-15T16:02:43.077Z,12.54
2019-02-15T16:05:12.103Z,12.53
2019-02-15T16:07:43.248Z,12.53
2019-02-15T16:10:13.027Z,12.50
2019-02-15T16:12:41.958Z,12.43
2019-02-15T16:15:12.267Z,12.32
2019-02-15T16:17:41.308Z,12.25
2019-02-15T16:20:11.727Z,12.19
2019-02-15T16:22:40.635Z,12.18
2019-02-15T16:25:10.555Z,12.17
2019-02-15T16:27:39.494Z,12.10
2019-02-15T16:30:13.292Z,12.04
2019-02-15T16:32:42.288Z,12.00
2019-02-15T16:35:11.208Z,11.93
2019-02-15T16:37:40.150Z,11.85
2019-02-15T16:40:12.050Z,11.80
2019-02-15T16:42:40.993Z,11.74
2019-02-15T16:45:12.918Z,11.74
2019-02-15T16:47:41.898Z,11.74
2019-02-15T16:50:10.949Z,11.71
2019-02-15T16:52:40.027Z,11.67
2019-02-15T16:55:12.744Z,11.66
2019-02-15T16:57:40.017Z,11.63
2019-02-15T17:00:11.387Z,11.65
2019-02-15T17:02:40.364Z,11.62
2019-02-15T17:05:09.357Z,11.58
2019-02-15T17:07:38.281Z,11.49
2019-02-15T17:10:09.047Z,11.45
2019-02-15T17:12:37.977Z,11.38
2019-02-15T17:15:10.254Z,11.33
2019-02-15T17:17:39.291Z,11.28
2019-02-15T17:20:09.459Z,11.19
2019-02-15T17:22:38.606Z,11.14
2019-02-15T17:25:09.790Z,11.07
2019-02-15T17:27:38.861Z,11.01
2019-02-15T17:30:12.077Z,10.98
2019-02-15T17:32:41.373Z,10.95
2019-02-15T17:35:11.353Z,10.94
2019-02-15T17:37:40.345Z,10.90
2019-02-15T17:40:16.306Z,10.89
2019-02-15T17:42:45.328Z,10.92
2019-02-15T17:45:14.278Z,10.92
2019-02-15T17:47:43.530Z,10.99
2019-02-15T17:50:12.758Z,11.00
2019-02-15T17:52:41.792Z,11.02
2019-02-15T17:55:10.818Z,11.00
2019-02-15T17:57:40.781Z,10.99
2019-02-15T18:00:12.229Z,10.96
2019-02-15T18:02:41.469Z,10.90
2019-02-15T18:05:12.527Z,10.84
2019-02-15T18:07:41.444Z,10.76
2019-02-15T18:10:12.169Z,10.72
2019-02-15T18:12:41.172Z,10.69
2019-02-15T18:15:10.442Z,10.70
2019-02-15T18:17:39.375Z,10.70
2019-02-15T18:20:09.257Z,10.74
2019-02-15T18:22:42.066Z,10.72
2019-02-15T18:25:11.171Z,10.69
2019-02-15T18:27:40.089Z,10.68
2019-02-15T18:30:12.794Z,10.66
2019-02-15T18:32:41.674Z,10.66
2019-02-15T18:35:10.593Z,10.63
2019-02-15T18:37:39.948Z,10.56
2019-02-15T18:40:10.483Z,10.51
2019-02-15T18:42:39.414Z,10.44
2019-02-15T18:45:11.585Z,10.42
2019-02-15T18:47:40.783Z,10.41
2019-02-15T18:50:29.483Z,10.35
2019-02-15T18:52:58.796Z,10.34
2019-02-15T18:55:31.595Z,10.40
2019-02-15T18:58:00.501Z,10.47
2019-02-15T19:00:29.469Z,10.47
2019-02-15T19:02:58.669Z,10.41
2019-02-15T19:05:27.637Z,10.33
2019-02-15T19:07:56.572Z,10.26
2019-02-15T19:10:25.497Z,10.17
2019-02-15T19:12:54.452Z,10.09
2019-02-15T19:15:23.399Z,10.06
2019-02-15T19:17:52.449Z,10.07
2019-02-15T19:20:21.404Z,10.01
2019-02-15T19:22:50.591Z,9.93
2019-02-15T19:25:20.574Z,9.83
2019-02-15T19:27:49.766Z,9.75
2019-02-15T19:30:27.515Z,9.68
2019-02-15T19:32:56.447Z,9.60
2019-02-15T19:35:25.438Z,9.62
2019-02-15T19:37:54.390Z,9.67
2019-02-15T19:40:23.426Z,9.74
2019-02-15T19:42:55.496Z,9.78
2019-02-15T19:45:24.449Z,9.89
2019-02-15T19:47:53.357Z,10.05
2019-02-15T19:50:22.405Z,10.14
2019-02-15T19:52:51.356Z,10.13
2019-02-15T19:55:20.443Z,10.08
2019-02-15T19:57:49.430Z,10.04
2019-02-15T20:00:19.389Z,10.00
2019-02-15T20:02:48.388Z,9.94
2019-02-15T20:05:17.710Z,9.85
2019-02-15T20:07:46.601Z,9.73
2019-02-15T20:10:18.739Z,9.61
2019-02-15T20:12:47.767Z,9.51
2019-02-15T20:15:16.752Z,9.49
2019-02-15T20:17:45.702Z,9.47
2019-02-15T20:20:16.064Z,9.50
2019-02-15T20:22:45.024Z,9.49
2019-02-15T20:25:14.121Z,9.57
2019-02-15T20:27:44.957Z,9.58
2019-02-15T20:30:19.798Z,9.62
2019-02-15T20:32:48.222Z,9.73
2019-02-15T20:35:17.161Z,9.75
2019-02-15T20:37:46.077Z,9.77
2019-02-15T20:40:15.015Z,9.84
2019-02-15T20:42:43.955Z,9.86
2019-02-15T20:45:15.624Z,9.88
2019-02-15T20:47:44.754Z,9.87
2019-02-15T20:50:14.542Z,9.87
2019-02-15T20:52:43.484Z,9.81
2019-02-15T20:55:18.589Z,9.77
2019-02-15T20:57:46.318Z,9.80
2019-02-15T21:00:23.496Z,9.79
2019-02-15T21:02:52.431Z,9.75
2019-02-15T21:05:21.382Z,9.71
2019-02-15T21:07:50.363Z,9.68
2019-02-15T21:10:19.269Z,9.65
2019-02-15T21:12:48.216Z,9.57
2019-02-15T21:15:17.136Z,9.52
2019-02-15T21:17:46.463Z,9.50
2019-02-15T21:20:16.073Z,9.46
2019-02-15T21:22:45.115Z,9.41
2019-02-15T21:25:15.896Z,9.39
2019-02-15T21:27:44.829Z,9.36
2019-02-15T21:30:18.047Z,9.37
2019-02-15T21:32:46.986Z,9.34
2019-02-15T21:35:15.986Z,9.30
2019-02-15T21:37:44.930Z,9.28
2019-02-15T21:40:17.608Z,9.30
2019-02-15T21:42:46.524Z,9.29
2019-02-15T21:45:15.477Z,9.24
2019-02-15T21:47:44.405Z,9.16
2019-02-15T21:50:17.121Z,9.12
2019-02-15T21:52:44.796Z,9.06
2019-02-15T21:55:15.309Z,9.00
2019-02-15T21:57:44.296Z,8.95
2019-02-15T22:00:18.346Z,8.91
2019-02-15T22:02:46.740Z,8.91
2019-02-15T22:05:16.140Z,8.92
2019-02-15T22:07:45.244Z,8.97
2019-02-15T22:10:14.181Z,8.96
2019-02-15T22:12:43.396Z,8.93
2019-02-15T22:15:14.265Z,8.88
2019-02-15T22:17:43.370Z,8.83
2019-02-15T22:20:14.839Z,8.66
2019-02-15T22:22:43.890Z,8.82
2019-02-15T22:25:13.063Z,8.76
2019-02-15T22:27:42.371Z,8.67
2019-02-15T22:30:15.992Z,8.64
2019-02-15T22:32:44.938Z,8.72
2019-02-15T22:35:13.851Z,8.74
2019-02-15T22:37:42.792Z,8.74
2019-02-15T22:40:31.390Z,8.73
2019-02-15T22:43:11.953Z,8.67
2019-02-15T22:45:41.020Z,8.57
2019-02-15T22:48:10.005Z,8.54
2019-02-15T22:50:38.924Z,8.58
2019-02-15T22:53:07.881Z,8.63
2019-02-15T22:55:37.226Z,8.61
2019-02-15T22:58:06.176Z,8.68
2019-02-15T23:00:46.467Z,8.75
2019-02-15T23:03:16.592Z,8.76
2019-02-15T23:05:45.526Z,8.76
2019-02-15T23:08:14.477Z,8.69
2019-02-15T23:10:43.411Z,8.63
2019-02-15T23:13:12.363Z,8.55
2019-02-15T23:15:41.422Z,8.53
2019-02-15T23:18:10.382Z,8.51
2019-02-15T23:20:45.200Z,8.49
2019-02-15T23:23:10.036Z,8.44
2019-02-15T23:25:38.968Z,8.42
2019-02-15T23:28:07.996Z,8.37
2019-02-15T23:30:36.992Z,8.31
2019-02-15T23:33:05.957Z,8.23
2019-02-15T23:35:37.332Z,8.19
2019-02-15T23:38:06.258Z,8.18
2019-02-15T23:40:35.318Z,8.18
2019-02-15T23:43:04.461Z,8.18
2019-02-15T23:45:33.464Z,8.19
2019-02-15T23:48:02.499Z,8.18
2019-02-15T23:53:06.070Z,8.28
2019-02-15T23:55:34.317Z,8.18
2019-02-15T23:58:02.661Z,8.20
